createdAt,value
2022-07-29T00:00:15.715Z,6.82
2022-07-29T00:03:03.937Z,8.73
2022-07-29T00:05:31.202Z,6.25
2022-07-29T00:07:58.234Z,4.32
2022-07-29T00:10:25.221Z,9.63
2022-07-29T00:12:52.467Z,6.25
2022-07-29T00:15:19.531Z,6.53
2022-07-29T00:17:46.532Z,6.22
2022-07-29T00:20:14.072Z,5.50
2022-07-29T00:22:41.327Z,4.30
2022-07-29T00:25:09.370Z,4.15
2022-07-29T00:30:05.608Z,6.00
2022-07-29T00:35:20.192Z,5.40
2022-07-29T00:37:47.424Z,9.40
2022-07-29T00:40:15.052Z,6.43
2022-07-29T00:42:49.338Z,5.28
2022-07-29T00:45:18.058Z,4.95
2022-07-29T00:47:45.603Z,4.85
2022-07-29T00:50:14.256Z,4.10
2022-07-29T00:55:31.364Z,7.90
2022-07-29T00:57:59.569Z,5.55
2022-07-29T01:00:29.356Z,5.10
2022-07-29T01:02:56.530Z,6.50
2022-07-29T01:05:50.342Z,7.25
2022-07-29T01:08:17.907Z,9.20
2022-07-29T01:10:46.502Z,6.35
2022-07-29T01:15:49.245Z,3.58
2022-07-29T01:18:40.952Z,4.55
2022-07-29T01:21:32.547Z,6.75
2022-07-29T01:24:12.939Z,7.53
2022-07-29T01:26:43.727Z,6.90
2022-07-29T01:29:17.559Z,5.65
2022-07-29T01:31:58.961Z,6.25
2022-07-29T01:34:43.377Z,6.80
2022-07-29T01:37:20.910Z,5.28
2022-07-29T01:39:51.245Z,5.78
2022-07-29T01:42:33.111Z,5.80
2022-07-29T01:45:12.000Z,6.70
2022-07-29T01:47:47.311Z,3.22
2022-07-29T01:50:18.687Z,4.57
2022-07-29T01:52:57.792Z,4.60
2022-07-29T01:55:30.721Z,3.50
2022-07-29T01:58:00.107Z,5.32
2022-07-29T02:00:28.963Z,4.25
2022-07-29T02:02:57.166Z,6.07
2022-07-29T02:05:28.508Z,4.57
2022-07-29T02:07:59.030Z,4.75
2022-07-29T02:10:30.877Z,5.38
2022-07-29T02:13:03.522Z,3.90
2022-07-29T02:15:34.024Z,3.88
2022-07-29T02:18:06.826Z,4.63
2022-07-29T02:20:35.107Z,5.75
2022-07-29T02:23:03.750Z,4.97
2022-07-29T02:28:07.752Z,6.47
2022-07-29T02:30:40.433Z,4.38
2022-07-29T02:33:11.050Z,8.55
2022-07-29T02:35:40.370Z,6.78
2022-07-29T02:38:28.046Z,4.47
2022-07-29T02:40:58.183Z,4.30
2022-07-29T02:43:27.033Z,4.38
2022-07-29T02:45:56.163Z,6.22
2022-07-29T02:48:32.948Z,4.68
2022-07-29T02:51:08.353Z,4.70
2022-07-29T02:53:38.458Z,5.72
2022-07-29T02:56:19.952Z,4.38
2022-07-29T02:58:58.125Z,5.18
2022-07-29T03:01:26.930Z,3.90
2022-07-29T03:03:55.144Z,4.75
2022-07-29T03:06:31.025Z,7.07
2022-07-29T03:09:13.042Z,7.30
2022-07-29T03:11:49.432Z,3.83
2022-07-29T03:14:21.997Z,4.00
2022-07-29T03:16:49.898Z,2.40
2022-07-29T03:19:17.918Z,4.20
2022-07-29T03:24:35.146Z,7.53
2022-07-29T03:27:03.450Z,4.88
2022-07-29T03:29:33.607Z,6.07
2022-07-29T03:32:04.398Z,4.45
2022-07-29T03:34:36.169Z,5.60
2022-07-29T03:37:04.132Z,5.38
2022-07-29T03:39:35.936Z,2.92
2022-07-29T03:42:07.255Z,3.60
2022-07-29T03:44:36.205Z,6.00
2022-07-29T03:47:07.279Z,4.60
2022-07-29T03:49:39.605Z,4.80
2022-07-29T03:52:07.262Z,1.98
2022-07-29T03:54:34.856Z,3.50
2022-07-29T03:57:04.752Z,3.03
2022-07-29T03:59:34.898Z,5.35
2022-07-29T04:02:04.458Z,6.50
2022-07-29T04:04:34.568Z,4.20
2022-07-29T04:07:01.986Z,5.10
2022-07-29T04:09:29.828Z,4.15
2022-07-29T04:12:03.339Z,4.15
2022-07-29T04:14:35.287Z,4.32
2022-07-29T04:17:03.613Z,3.33
2022-07-29T04:19:30.932Z,3.42
2022-07-29T04:22:00.178Z,5.35
2022-07-29T04:24:27.618Z,5.65
2022-07-29T04:26:55.490Z,2.97
2022-07-29T04:29:23.298Z,6.47
2022-07-29T04:31:50.285Z,4.10
2022-07-29T04:34:17.855Z,5.78
2022-07-29T04:36:45.424Z,2.92
2022-07-29T04:39:13.240Z,4.50
2022-07-29T04:41:41.934Z,5.13
2022-07-29T04:44:11.026Z,4.40
2022-07-29T04:46:39.524Z,6.80
2022-07-29T04:49:09.853Z,6.45
2022-07-29T04:51:37.875Z,3.60
2022-07-29T04:54:06.816Z,5.32
2022-07-29T04:56:34.372Z,12.60
2022-07-29T04:59:04.241Z,6.90
2022-07-29T05:01:31.266Z,8.57
2022-07-29T05:04:00.528Z,6.80
2022-07-29T05:06:29.589Z,15.50
2022-07-29T05:11:28.642Z,5.13
2022-07-29T05:13:57.770Z,25.02
2022-07-29T05:16:24.930Z,26.77
2022-07-29T05:18:54.111Z,18.27
2022-07-29T05:21:23.282Z,16.70
2022-07-29T05:23:50.666Z,8.45
2022-07-29T05:26:18.117Z,8.05
2022-07-29T05:28:45.473Z,12.80
2022-07-29T05:31:12.521Z,14.98
2022-07-29T05:33:39.621Z,7.80
2022-07-29T05:36:11.895Z,5.07
2022-07-29T05:38:42.022Z,14.18
2022-07-29T05:41:24.082Z,10.45
2022-07-29T05:43:51.542Z,7.88
2022-07-29T05:46:18.781Z,8.90
2022-07-29T05:48:45.847Z,8.90
2022-07-29T05:51:13.193Z,11.23
2022-07-29T05:53:40.657Z,11.60
2022-07-29T05:56:08.439Z,9.38
2022-07-29T05:58:35.805Z,10.45
2022-07-29T06:01:03.095Z,9.60
2022-07-29T06:03:31.514Z,15.73
2022-07-29T06:06:02.030Z,10.63
2022-07-29T06:08:29.044Z,8.52
2022-07-29T06:10:56.127Z,6.95
2022-07-29T06:13:23.645Z,8.48
2022-07-29T06:15:50.771Z,13.75
2022-07-29T06:18:18.329Z,9.30
2022-07-29T06:20:45.854Z,12.00
2022-07-29T06:23:13.664Z,10.88
2022-07-29T06:25:41.945Z,12.85
2022-07-29T06:28:10.193Z,9.70
2022-07-29T06:30:39.139Z,10.52
2022-07-29T06:33:06.495Z,6.35
2022-07-29T06:35:42.472Z,10.23
2022-07-29T06:38:31.275Z,10.73
2022-07-29T06:41:01.963Z,14.63
2022-07-29T06:43:52.166Z,8.45
2022-07-29T06:46:23.356Z,12.35
2022-07-29T06:48:52.762Z,13.80
2022-07-29T06:51:22.367Z,16.35
2022-07-29T06:53:59.075Z,27.67
2022-07-29T06:56:31.091Z,25.83
2022-07-29T06:58:58.687Z,11.98
2022-07-29T07:01:26.038Z,10.73
2022-07-29T07:03:53.249Z,13.32
2022-07-29T07:06:20.569Z,11.35
2022-07-29T07:08:47.831Z,13.13
2022-07-29T07:11:14.873Z,12.25
2022-07-29T07:13:42.167Z,19.33
2022-07-29T07:16:09.785Z,16.67
2022-07-29T07:18:41.342Z,16.17
2022-07-29T07:21:09.794Z,16.50
2022-07-29T07:23:36.834Z,17.08
2022-07-29T07:26:04.202Z,16.75
2022-07-29T07:28:31.660Z,12.60
2022-07-29T07:30:59.147Z,14.80
2022-07-29T07:33:26.630Z,16.40
2022-07-29T07:35:54.254Z,14.32
2022-07-29T07:38:21.292Z,10.88
2022-07-29T07:40:48.403Z,15.30
2022-07-29T07:43:15.819Z,12.63
2022-07-29T07:45:43.036Z,6.28
2022-07-29T07:48:13.657Z,12.77
2022-07-29T07:50:41.874Z,9.48
2022-07-29T07:53:09.053Z,7.47
2022-07-29T07:56:08.233Z,12.48
2022-07-29T08:01:00.641Z,9.85
2022-07-29T08:03:27.849Z,11.20
2022-07-29T08:05:55.529Z,9.55
2022-07-29T08:08:22.770Z,10.20
2022-07-29T08:11:02.242Z,10.07
2022-07-29T08:13:33.206Z,11.20
2022-07-29T08:16:02.098Z,27.55
2022-07-29T08:18:31.353Z,16.17
2022-07-29T08:21:01.688Z,10.65
2022-07-29T08:23:46.148Z,11.85
2022-07-29T08:26:16.590Z,10.85
2022-07-29T08:28:51.353Z,15.43
2022-07-29T08:31:20.271Z,14.48
2022-07-29T08:33:50.132Z,10.00
2022-07-29T08:36:17.623Z,7.97
2022-07-29T08:38:45.901Z,9.55
2022-07-29T08:41:13.491Z,12.32
2022-07-29T08:43:42.108Z,11.98
2022-07-29T08:46:09.833Z,6.63
2022-07-29T08:48:37.725Z,7.40
2022-07-29T08:51:06.279Z,7.38
2022-07-29T08:53:34.766Z,9.85
2022-07-29T08:56:03.106Z,7.00
2022-07-29T08:58:36.632Z,7.70
2022-07-29T09:01:05.074Z,5.63
2022-07-29T09:03:37.625Z,7.88
2022-07-29T09:06:05.597Z,9.82
2022-07-29T09:08:34.495Z,15.55
2022-07-29T09:11:03.873Z,8.70
2022-07-29T09:13:31.362Z,9.02
2022-07-29T09:15:58.864Z,10.88
2022-07-29T09:18:38.530Z,7.80
2022-07-29T09:21:26.794Z,7.82
2022-07-29T09:24:15.008Z,7.90
2022-07-29T09:26:45.875Z,5.15
2022-07-29T09:29:19.487Z,8.30
2022-07-29T09:31:49.914Z,5.75
2022-07-29T09:34:22.614Z,10.80
2022-07-29T09:36:52.880Z,9.10
2022-07-29T09:39:50.128Z,6.65
2022-07-29T09:42:47.534Z,9.48
2022-07-29T09:45:58.512Z,6.95
2022-07-29T09:48:28.443Z,6.93
2022-07-29T09:50:56.309Z,6.72
2022-07-29T09:53:36.979Z,5.65
2022-07-29T09:56:07.275Z,3.88
2022-07-29T09:58:36.191Z,5.13
2022-07-29T10:01:04.418Z,8.55
2022-07-29T10:03:32.447Z,6.03
2022-07-29T10:06:15.125Z,5.30
2022-07-29T10:08:44.182Z,8.05
2022-07-29T10:11:18.921Z,7.63
2022-07-29T10:16:16.657Z,3.17
2022-07-29T10:18:45.872Z,6.10
2022-07-29T10:21:35.458Z,3.58
2022-07-29T10:24:02.515Z,6.70
2022-07-29T10:26:31.595Z,5.53
2022-07-29T10:28:59.630Z,5.10
2022-07-29T10:32:01.707Z,8.52
2022-07-29T10:35:14.297Z,7.88
2022-07-29T10:38:00.459Z,5.55
2022-07-29T10:41:06.694Z,6.05
2022-07-29T10:43:43.858Z,14.40
2022-07-29T10:46:15.586Z,4.47
2022-07-29T10:49:17.272Z,4.72
2022-07-29T10:52:06.775Z,6.75
2022-07-29T10:54:37.613Z,4.78
2022-07-29T11:00:16.701Z,12.40
2022-07-29T11:02:53.098Z,11.48
2022-07-29T11:05:22.238Z,6.28
2022-07-29T11:08:19.476Z,4.05
2022-07-29T11:10:54.617Z,4.25
2022-07-29T11:13:46.559Z,4.35
2022-07-29T11:16:16.139Z,5.65
2022-07-29T11:19:13.339Z,8.35
2022-07-29T11:21:55.135Z,8.02
2022-07-29T11:24:35.018Z,6.47
2022-07-29T11:27:23.341Z,6.13
2022-07-29T11:30:04.806Z,8.75
2022-07-29T11:32:41.407Z,8.65
2022-07-29T11:35:19.489Z,9.40
2022-07-29T11:38:23.791Z,7.88
2022-07-29T11:41:32.639Z,8.55
2022-07-29T11:44:03.016Z,7.85
2022-07-29T11:46:53.967Z,6.47
2022-07-29T11:49:32.490Z,5.38
2022-07-29T11:52:04.854Z,9.23
2022-07-29T11:54:52.267Z,15.98
2022-07-29T11:57:22.536Z,4.82
2022-07-29T11:59:50.813Z,7.45
2022-07-29T12:02:37.823Z,7.40
2022-07-29T12:05:11.550Z,7.95
2022-07-29T12:07:46.017Z,7.53
2022-07-29T12:10:19.839Z,8.27
2022-07-29T12:12:56.966Z,8.02
2022-07-29T12:15:45.691Z,7.13
2022-07-29T12:18:16.553Z,11.88
2022-07-29T12:20:51.571Z,6.45
2022-07-29T12:23:21.702Z,9.88
2022-07-29T12:25:49.982Z,8.93
2022-07-29T12:28:26.646Z,9.35
2022-07-29T12:30:55.280Z,10.88
2022-07-29T12:33:27.510Z,8.48
2022-07-29T12:36:06.961Z,9.57
2022-07-29T12:38:41.914Z,7.60
2022-07-29T12:41:09.614Z,9.88
2022-07-29T12:43:37.040Z,6.20
2022-07-29T12:46:16.957Z,14.23
2022-07-29T12:48:44.942Z,7.75
2022-07-29T12:51:15.671Z,7.82
2022-07-29T12:53:43.185Z,6.55
2022-07-29T12:59:14.424Z,9.90
2022-07-29T13:01:41.811Z,11.05
2022-07-29T13:04:09.200Z,8.02
2022-07-29T13:06:46.198Z,11.35
2022-07-29T13:09:20.518Z,7.38
2022-07-29T13:11:50.681Z,15.68
2022-07-29T13:14:35.767Z,11.80
2022-07-29T13:17:07.734Z,10.23
2022-07-29T13:19:43.773Z,29.77
2022-07-29T13:22:16.477Z,13.38
2022-07-29T13:25:10.493Z,8.18
2022-07-29T13:27:41.713Z,8.18
2022-07-29T13:30:10.461Z,8.57
2022-07-29T13:32:41.758Z,9.88
2022-07-29T13:35:11.074Z,8.55
2022-07-29T13:37:39.603Z,11.10
2022-07-29T13:40:09.676Z,6.65
2022-07-29T13:42:36.840Z,9.00
2022-07-29T13:45:05.566Z,8.88
2022-07-29T13:47:33.531Z,7.85
2022-07-29T13:50:06.213Z,10.23
2022-07-29T13:52:35.649Z,11.20
2022-07-29T13:55:06.521Z,8.07
2022-07-29T13:57:35.218Z,7.90
2022-07-29T14:00:09.612Z,8.35
2022-07-29T14:02:40.641Z,12.07
2022-07-29T14:05:09.140Z,9.38
2022-07-29T14:07:36.761Z,9.13
2022-07-29T14:10:05.212Z,7.38
2022-07-29T14:12:33.025Z,8.60
2022-07-29T14:15:01.455Z,8.38
2022-07-29T14:17:28.896Z,8.88
2022-07-29T14:19:56.193Z,9.18
2022-07-29T14:22:25.423Z,12.80
2022-07-29T14:24:52.730Z,10.10
2022-07-29T14:30:05.897Z,9.40
2022-07-29T14:32:33.147Z,18.20
2022-07-29T14:35:05.109Z,9.80
2022-07-29T14:37:39.887Z,11.73
2022-07-29T14:40:09.135Z,6.60
2022-07-29T14:42:38.722Z,17.20
2022-07-29T14:45:07.915Z,7.82
2022-07-29T14:47:35.723Z,5.85
2022-07-29T14:50:06.041Z,7.97
2022-07-29T14:52:35.278Z,8.85
2022-07-29T14:55:05.433Z,7.82
2022-07-29T14:57:44.557Z,7.53
2022-07-29T15:00:13.085Z,8.43
2022-07-29T15:03:00.949Z,11.63
2022-07-29T15:05:33.255Z,8.57
2022-07-29T15:08:01.171Z,7.60
2022-07-29T15:10:32.174Z,5.28
2022-07-29T15:13:07.047Z,15.38
2022-07-29T15:15:34.887Z,8.85
2022-07-29T15:18:02.337Z,13.93
2022-07-29T15:23:10.495Z,17.13
2022-07-29T15:25:41.642Z,11.70
2022-07-29T15:28:10.844Z,8.55
2022-07-29T15:30:53.296Z,13.85
2022-07-29T15:33:20.679Z,8.07
2022-07-29T15:35:48.225Z,10.13
2022-07-29T15:38:19.444Z,12.65
2022-07-29T15:40:47.764Z,11.05
2022-07-29T15:43:19.170Z,9.18
2022-07-29T15:46:07.473Z,11.43
2022-07-29T15:48:39.541Z,6.15
2022-07-29T15:51:06.629Z,8.98
2022-07-29T15:53:35.243Z,5.40
2022-07-29T15:58:31.628Z,8.05
2022-07-29T16:00:59.035Z,8.55
2022-07-29T16:03:26.409Z,11.35
2022-07-29T16:05:53.409Z,10.02
2022-07-29T16:08:20.558Z,7.57
2022-07-29T16:10:49.214Z,8.73
2022-07-29T16:13:17.852Z,8.20
2022-07-29T16:16:02.685Z,10.77
2022-07-29T16:18:34.913Z,9.75
2022-07-29T16:21:01.985Z,7.90
2022-07-29T16:23:29.983Z,13.55
2022-07-29T16:26:00.148Z,21.25
2022-07-29T16:28:29.742Z,20.73
2022-07-29T16:30:58.001Z,27.95
2022-07-29T16:33:25.591Z,22.23
2022-07-29T16:35:53.239Z,26.00
2022-07-29T16:38:22.282Z,35.10
2022-07-29T16:40:49.829Z,33.88
2022-07-29T16:43:23.815Z,47.72
2022-07-29T16:45:51.441Z,38.97
2022-07-29T16:48:18.895Z,23.70
2022-07-29T16:50:46.395Z,25.67
2022-07-29T16:53:13.733Z,14.85
2022-07-29T16:55:42.282Z,24.20
2022-07-29T16:58:10.985Z,20.02
2022-07-29T17:00:41.757Z,19.38
2022-07-29T17:03:09.106Z,15.80
2022-07-29T17:08:22.907Z,21.25
2022-07-29T17:10:50.437Z,13.43
2022-07-29T17:13:17.971Z,18.45
2022-07-29T17:15:46.902Z,19.67
2022-07-29T17:18:14.559Z,17.23
2022-07-29T17:20:42.313Z,13.80
2022-07-29T17:23:09.574Z,13.45
2022-07-29T17:25:39.903Z,11.98
2022-07-29T17:28:07.252Z,13.30
2022-07-29T17:30:37.845Z,14.45
2022-07-29T17:33:07.838Z,27.50
2022-07-29T17:36:02.992Z,16.85
2022-07-29T17:38:31.564Z,12.15
2022-07-29T17:41:01.262Z,14.48
2022-07-29T17:43:37.419Z,14.00
2022-07-29T17:46:08.075Z,12.20
2022-07-29T17:48:37.078Z,11.88
2022-07-29T17:51:11.847Z,10.40
2022-07-29T17:53:40.195Z,9.57
2022-07-29T17:56:08.267Z,12.02
2022-07-29T17:58:35.891Z,11.93
2022-07-29T18:01:03.421Z,15.82
2022-07-29T18:03:33.956Z,15.68
2022-07-29T18:06:02.234Z,15.45
2022-07-29T18:08:37.849Z,11.95
2022-07-29T18:11:05.311Z,13.30
2022-07-29T18:13:32.610Z,19.23
2022-07-29T18:16:02.905Z,10.80
2022-07-29T18:18:32.767Z,15.07
2022-07-29T18:20:59.815Z,15.52
2022-07-29T18:23:31.199Z,15.18
2022-07-29T18:25:58.396Z,11.55
2022-07-29T18:28:25.799Z,12.30
2022-07-29T18:30:55.872Z,11.18
2022-07-29T18:33:23.436Z,12.07
2022-07-29T18:36:10.575Z,12.70
2022-07-29T18:38:43.107Z,13.68
2022-07-29T18:41:11.896Z,10.80
2022-07-29T18:43:39.516Z,15.13
2022-07-29T18:46:07.140Z,14.70
2022-07-29T18:48:37.137Z,13.15
2022-07-29T18:51:09.390Z,15.80
2022-07-29T18:53:37.744Z,15.85
2022-07-29T18:56:07.510Z,14.65
2022-07-29T18:58:37.538Z,15.70
2022-07-29T19:01:07.087Z,12.88
2022-07-29T19:03:34.199Z,16.98
2022-07-29T19:06:03.291Z,18.30
2022-07-29T19:08:31.627Z,21.85
2022-07-29T19:10:59.003Z,17.10
2022-07-29T19:13:28.971Z,26.67
2022-07-29T19:16:07.480Z,22.45
2022-07-29T19:18:45.499Z,20.70
2022-07-29T19:21:13.032Z,22.63
2022-07-29T19:24:01.671Z,13.93
2022-07-29T19:26:30.406Z,19.80
2022-07-29T19:29:00.239Z,19.15
2022-07-29T19:31:33.531Z,17.52
2022-07-29T19:34:02.857Z,16.73
2022-07-29T19:36:31.433Z,17.13
2022-07-29T19:39:00.344Z,17.92
2022-07-29T19:41:28.847Z,15.65
2022-07-29T19:44:00.019Z,11.63
2022-07-29T19:46:30.749Z,12.02
2022-07-29T19:49:00.087Z,13.85
2022-07-29T19:51:31.236Z,15.05
2022-07-29T19:53:59.350Z,12.85
2022-07-29T19:56:30.178Z,15.43
2022-07-29T19:58:58.843Z,12.43
2022-07-29T20:01:27.031Z,18.55
2022-07-29T20:03:55.384Z,15.95
2022-07-29T20:06:23.239Z,15.18
2022-07-29T20:08:50.678Z,13.57
2022-07-29T20:11:19.050Z,15.20
2022-07-29T20:13:46.186Z,11.43
2022-07-29T20:16:13.605Z,14.73
2022-07-29T20:18:40.707Z,17.77
2022-07-29T20:21:07.745Z,16.83
2022-07-29T20:23:35.110Z,11.63
2022-07-29T20:26:03.438Z,16.20
2022-07-29T20:28:33.238Z,22.30
2022-07-29T20:31:00.544Z,18.10
2022-07-29T20:33:27.527Z,16.63
2022-07-29T20:35:54.618Z,17.60
2022-07-29T20:38:21.994Z,16.67
2022-07-29T20:40:49.783Z,18.33
2022-07-29T20:43:16.765Z,18.30
2022-07-29T20:45:44.141Z,28.63
2022-07-29T20:48:11.262Z,19.20
2022-07-29T20:50:38.335Z,21.17
2022-07-29T20:53:05.738Z,30.33
2022-07-29T20:55:35.834Z,26.33
2022-07-29T20:58:03.084Z,35.13
2022-07-29T21:00:31.252Z,22.80
2022-07-29T21:02:58.411Z,11.00
2022-07-29T21:05:25.474Z,13.07
2022-07-29T21:07:56.594Z,13.60
2022-07-29T21:10:25.909Z,15.77
2022-07-29T21:12:53.141Z,18.50
2022-07-29T21:15:21.727Z,12.85
2022-07-29T21:17:48.833Z,11.55
2022-07-29T21:20:17.951Z,15.32
2022-07-29T21:22:45.425Z,15.73
2022-07-29T21:25:12.566Z,13.02
2022-07-29T21:27:58.295Z,15.63
2022-07-29T21:30:25.334Z,14.52
2022-07-29T21:32:52.654Z,22.33
2022-07-29T21:36:01.569Z,8.75
2022-07-29T21:38:06.954Z,12.10
2022-07-29T21:40:33.964Z,12.35
2022-07-29T21:43:01.223Z,16.38
2022-07-29T21:45:28.619Z,21.83
2022-07-29T21:47:55.650Z,18.75
2022-07-29T21:50:22.729Z,27.92
2022-07-29T21:52:50.008Z,16.73
2022-07-29T21:55:18.576Z,19.50
2022-07-29T21:57:46.384Z,20.20
2022-07-29T22:00:15.872Z,20.10
2022-07-29T22:02:43.698Z,25.95
2022-07-29T22:05:12.165Z,23.95
2022-07-29T22:07:54.231Z,23.48
2022-07-29T22:10:22.201Z,20.95
2022-07-29T22:12:54.342Z,20.60
2022-07-29T22:15:21.970Z,18.23
2022-07-29T22:17:49.053Z,18.58
2022-07-29T22:20:16.352Z,21.25
2022-07-29T22:22:43.544Z,21.15
2022-07-29T22:25:11.289Z,21.00
2022-07-29T22:27:38.961Z,22.05
2022-07-29T22:30:07.361Z,31.95
2022-07-29T22:32:34.801Z,32.17
2022-07-29T22:35:02.068Z,26.48
2022-07-29T22:37:29.114Z,33.20
2022-07-29T22:39:58.086Z,33.53
2022-07-29T22:42:25.710Z,30.83
2022-07-29T22:44:54.634Z,30.75
2022-07-29T22:47:46.702Z,29.27
2022-07-29T22:50:09.119Z,27.38
2022-07-29T22:52:36.111Z,34.08
2022-07-29T22:55:05.117Z,28.52
2022-07-29T22:57:32.599Z,28.70
2022-07-29T23:00:02.246Z,27.17
2022-07-29T23:02:29.468Z,27.75
2022-07-29T23:04:57.220Z,33.75
2022-07-29T23:07:24.770Z,29.20
2022-07-29T23:09:54.358Z,29.50
2022-07-29T23:12:21.686Z,27.48
2022-07-29T23:14:48.642Z,27.60
2022-07-29T23:17:15.660Z,26.38
2022-07-29T23:19:43.116Z,24.50
2022-07-29T23:22:11.759Z,25.45
2022-07-29T23:24:38.866Z,25.77
2022-07-29T23:27:08.349Z,23.33
2022-07-29T23:29:36.885Z,26.65
2022-07-29T23:32:04.274Z,26.90
2022-07-29T23:34:31.542Z,22.80
2022-07-29T23:36:58.988Z,27.02
2022-07-29T23:39:26.433Z,22.40
2022-07-29T23:41:53.724Z,25.00
2022-07-29T23:44:20.867Z,27.88
2022-07-29T23:46:48.098Z,24.40
2022-07-29T23:49:15.657Z,23.45
2022-07-29T23:51:42.778Z,24.13
2022-07-29T23:54:09.757Z,19.55
2022-07-29T23:56:37.027Z,25.00
2022-07-29T23:59:05.936Z,24.17
